Time;durP1;ratioP1;P1;durP2;ratioP2;P2;SDS_P1;SDS_P2;PMS_P1;PMS_P2;Temp;Humidity;BMP_temperature;BMP_pressure;BME280_temperature;BME280_humidity;BME280_pressure;Samples;Min_cycle;Max_cycle;Signal;HPM_P1;HPM_P2
2023/02/08 00:01:22;;;;;;;;;;;;;;;-3.43;61.11;94248.25;2055577;69;20046;-73
2023/02/08 00:03:49;;;;;;;;;;;;;;;-3.45;61.11;94255.47;2055443;70;20058;-73
2023/02/08 00:06:15;;;;;;;;;;;;;;;-3.40;59.82;94247.25;2068443;69;20047;-75
2023/02/08 00:08:40;;;;;;;;;;;;;;;-3.46;60.32;94253.97;2055345;70;20501;-74
2023/02/08 00:11:06;;;;;;;;;;;;;;;-3.40;59.91;94261.03;2068294;69;20155;-72
2023/02/08 00:13:32;;;;;;;;;;;;;;;-3.32;60.83;94253.13;2055388;70;20046;-72
2023/02/08 00:15:58;;;;;;;;;;;;;;;-3.32;60.89;94247.63;2055211;70;20073;-72
2023/02/08 00:18:23;;;;;;;;;;;;;;;-3.30;60.37;94258.13;2068173;69;20062;-71
2023/02/08 00:20:49;;;;;;;;;;;;;;;-3.51;61.28;94244.38;2055097;69;20547;-74
2023/02/08 00:23:15;;;;;;;;;;;;;;;-3.60;59.74;94247.28;2055074;70;20492;-73
2023/02/08 00:25:40;;;;;;;;;;;;;;;-3.59;60.71;94243.28;2055178;69;20453;-72
2023/02/08 00:28:07;;;;;;;;;;;;;;;-3.51;59.91;94240.88;2055406;70;20082;-71
2023/02/08 00:30:34;;;;;;;;;;;;;;;-3.49;60.34;94243.91;2055159;70;20128;-72
2023/02/08 00:33:00;;;;;;;;;;;;;;;-3.40;59.89;94244.50;2055147;70;20077;-71
2023/02/08 00:35:26;;;;;;;;;;;;;;;-3.45;60.19;94247.19;2067943;69;20505;-72
2023/02/08 00:37:51;;;;;;;;;;;;;;;-3.49;59.75;94246.66;2055238;70;20058;-73
2023/02/08 00:40:17;;;;;;;;;;;;;;;-3.48;60.78;94253.66;2055069;70;20050;-75
2023/02/08 00:42:42;;;;;;;;;;;;;;;-3.56;61.06;94256.09;2054991;70;20106;-70
2023/02/08 00:45:08;;;;;;;;;;;;;;;-3.41;61.50;94256.03;2055152;70;20051;-70
2023/02/08 00:47:33;;;;;;;;;;;;;;;-3.58;60.94;94253.81;2055185;70;20050;-72
2023/02/08 00:49:59;;;;;;;;;;;;;;;-3.76;61.27;94256.81;2055077;70;20074;-71
2023/02/08 00:52:24;;;;;;;;;;;;;;;-3.65;61.05;94256.22;2055190;70;20058;-72
2023/02/08 00:54:50;;;;;;;;;;;;;;;-3.65;60.64;94264.47;2055204;70;20056;-72
2023/02/08 00:57:15;;;;;;;;;;;;;;;-3.64;61.15;94258.50;2055146;70;20561;-72
2023/02/08 00:59:41;;;;;;;;;;;;;;;-3.61;61.66;94267.78;2068078;69;20050;-74
2023/02/08 01:02:08;;;;;;;;;;;;;;;-3.66;61.52;94269.25;2055193;70;20413;-76
2023/02/08 01:04:33;;;;;;;;;;;;;;;-3.68;60.88;94276.44;2054983;70;20061;-73
2023/02/08 01:06:58;;;;;;;;;;;;;;;-3.59;61.45;94266.06;2068300;69;20057;-75
2023/02/08 01:09:24;;;;;;;;;;;;;;;-3.57;60.45;94262.84;2068439;69;20120;-75
2023/02/08 01:11:49;;;;;;;;;;;;;;;-3.58;60.08;94270.31;2055183;70;20054;-71
2023/02/08 01:14:15;;;;;;;;;;;;;;;-3.68;61.45;94268.94;2055329;70;20070;-71
2023/02/08 01:16:41;;;;;;;;;;;;;;;-3.71;61.35;94266.38;2068363;69;20576;-72
2023/02/08 01:19:06;;;;;;;;;;;;;;;-3.69;61.16;94259.19;2065591;69;20556;-72
2023/02/08 01:21:37;;;;;;;;;;;;;;;-3.56;60.85;94261.59;2055325;70;20430;-71
2023/02/08 01:24:03;;;;;;;;;;;;;;;-3.69;61.26;94261.19;2068387;69;20054;-72
2023/02/08 01:26:29;;;;;;;;;;;;;;;-3.77;60.99;94265.56;2055281;70;20046;-70
2023/02/08 01:28:55;;;;;;;;;;;;;;;-3.73;61.13;94258.63;2055407;70;20057;-70
2023/02/08 01:31:27;;;;;;;;;;;;;;;-3.70;61.50;94260.41;2055432;70;20538;-71
2023/02/08 01:33:53;;;;;;;;;;;;;;;-3.71;60.05;94267.16;2055333;70;20131;-71
2023/02/08 01:36:19;;;;;;;;;;;;;;;-3.77;60.94;94257.31;2068185;69;20066;-72
2023/02/08 01:38:45;;;;;;;;;;;;;;;-3.80;61.04;94267.28;2067929;69;20070;-74
2023/02/08 01:41:18;;;;;;;;;;;;;;;-3.81;61.42;94263.00;2065086;69;20049;-72
2023/02/08 01:44:02;;;;;;;;;;;;;;;-3.87;61.25;94265.69;2067975;69;20494;-75
2023/02/08 01:46:30;;;;;;;;;;;;;;;-3.87;60.74;94262.94;2055211;70;20046;-73
2023/02/08 01:48:57;;;;;;;;;;;;;;;-3.88;60.14;94263.44;2055353;70;20070;-75
2023/02/08 01:51:30;;;;;;;;;;;;;;;-3.85;61.07;94259.69;2068063;69;20058;-73
2023/02/08 01:53:56;;;;;;;;;;;;;;;-3.91;60.46;94265.13;2055091;70;20094;-71
2023/02/08 01:56:27;;;;;;;;;;;;;;;-3.90;60.84;94261.13;2054943;70;20153;-71
2023/02/08 01:58:56;;;;;;;;;;;;;;;-4.03;60.76;94260.72;2065498;69;20049;-70
2023/02/08 02:01:23;;;;;;;;;;;;;;;-4.04;62.64;94256.44;2068043;69;20065;-71
2023/02/08 02:03:49;;;;;;;;;;;;;;;-4.04;61.11;94256.44;2055216;69;20061;-71
2023/02/08 02:06:16;;;;;;;;;;;;;;;-3.92;61.31;94257.38;2055203;69;20148;-73
2023/02/08 02:08:45;;;;;;;;;;;;;;;-3.99;60.66;94249.50;2055345;70;20482;-71
2023/02/08 02:11:12;;;;;;;;;;;;;;;-3.85;59.91;94251.44;2068042;69;20145;-72
2023/02/08 02:13:38;;;;;;;;;;;;;;;-3.90;58.75;94254.88;2055105;70;20203;-70
2023/02/08 02:16:03;;;;;;;;;;;;;;;-3.98;58.49;94253.78;2054880;70;20157;-71
2023/02/08 02:18:31;;;;;;;;;;;;;;;-3.88;58.13;94252.41;2067874;69;20047;-70
2023/02/08 02:21:07;;;;;;;;;;;;;;;-3.85;57.39;94245.94;2067934;69;20106;-75
2023/02/08 02:23:55;;;;;;;;;;;;;;;-3.83;57.72;94246.22;2054856;70;20066;-72
2023/02/08 02:26:27;;;;;;;;;;;;;;;-3.68;56.92;94244.16;2053420;69;20512;-74
2023/02/08 02:29:05;;;;;;;;;;;;;;;-3.73;57.08;94242.09;2054725;70;20057;-72
2023/02/08 02:31:37;;;;;;;;;;;;;;;-3.72;57.19;94237.34;2067516;69;20082;-71
2023/02/08 02:34:03;;;;;;;;;;;;;;;-3.99;56.97;94233.75;2068194;69;20521;-74
2023/02/08 02:36:39;;;;;;;;;;;;;;;-3.84;56.57;94237.22;2067657;69;20145;-75
2023/02/08 02:39:14;;;;;;;;;;;;;;;-3.70;56.29;94229.38;2055072;70;20086;-76
2023/02/08 02:44:35;;;;;;;;;;;;;;;-3.63;55.98;94232.47;2055193;70;20050;-75
2023/02/08 02:47:21;;;;;;;;;;;;;;;-3.67;55.96;94217.41;2055204;70;20142;-72
2023/02/08 02:49:53;;;;;;;;;;;;;;;-3.70;56.76;94221.13;2054742;69;20090;-75
2023/02/08 02:52:33;;;;;;;;;;;;;;;-3.69;56.20;94225.41;2054986;70;20072;-76
2023/02/08 02:55:04;;;;;;;;;;;;;;;-3.72;56.18;94231.84;2055094;70;20133;-76
2023/02/08 02:57:31;;;;;;;;;;;;;;;-3.70;56.14;94224.63;2054950;69;20077;-77
2023/02/08 02:59:57;;;;;;;;;;;;;;;-3.77;56.80;94229.78;2054787;70;20141;-71
2023/02/08 03:02:24;;;;;;;;;;;;;;;-3.69;55.87;94230.91;2054892;70;20057;-72
2023/02/08 03:04:51;;;;;;;;;;;;;;;-3.96;57.10;94223.78;2054991;70;20046;-73
2023/02/08 03:07:20;;;;;;;;;;;;;;;-3.91;56.45;94234.84;2067994;69;20073;-74
2023/02/08 03:09:48;;;;;;;;;;;;;;;-3.87;57.15;94223.66;2054855;70;20563;-73
2023/02/08 03:12:32;;;;;;;;;;;;;;;-4.24;58.90;94226.91;2054929;70;20077;-76
2023/02/08 03:15:13;;;;;;;;;;;;;;;-3.96;58.64;94224.53;2068080;69;20116;-72
2023/02/08 03:17:39;;;;;;;;;;;;;;;-4.03;58.69;94227.72;2054919;69;20129;-75
2023/02/08 03:20:17;;;;;;;;;;;;;;;-4.16;58.73;94217.03;2054778;70;20520;-75
2023/02/08 03:23:01;;;;;;;;;;;;;;;-4.22;60.07;94218.91;2067923;69;20054;-73
2023/02/08 03:25:45;;;;;;;;;;;;;;;-4.16;60.31;94227.28;2065150;69;20553;-74
2023/02/08 03:28:19;;;;;;;;;;;;;;;-4.16;59.62;94219.03;2054852;70;20205;-72
2023/02/08 03:30:50;;;;;;;;;;;;;;;-4.21;58.77;94220.44;2054956;70;20050;-72
2023/02/08 03:33:23;;;;;;;;;;;;;;;-4.17;59.17;94222.97;2054836;70;20089;-77
2023/02/08 03:35:51;;;;;;;;;;;;;;;-4.35;59.19;94221.25;2054804;70;20046;-71
2023/02/08 03:38:21;;;;;;;;;;;;;;;-4.29;59.44;94218.56;2067877;69;20070;-72
2023/02/08 03:40:49;;;;;;;;;;;;;;;-4.30;59.54;94219.81;2055417;70;20109;-71
2023/02/08 03:43:35;;;;;;;;;;;;;;;-4.38;61.52;94220.19;2055385;70;20062;-73
2023/02/08 03:46:04;;;;;;;;;;;;;;;-4.33;60.93;94218.75;2055436;70;20125;-72
2023/02/08 03:48:31;;;;;;;;;;;;;;;-4.30;60.21;94215.06;2055517;70;20058;-74
2023/02/08 03:50:57;;;;;;;;;;;;;;;-4.73;60.61;94220.13;2055389;70;20169;-74
2023/02/08 03:53:24;;;;;;;;;;;;;;;-4.70;61.71;94221.19;2055586;70;20085;-72
2023/02/08 03:55:51;;;;;;;;;;;;;;;-4.45;61.35;94220.56;2068462;69;20046;-71
2023/02/08 03:58:25;;;;;;;;;;;;;;;-4.42;60.50;94222.38;2055831;69;20179;-76
2023/02/08 04:00:54;;;;;;;;;;;;;;;-4.71;60.95;94219.69;2055730;70;20437;-73
2023/02/08 04:03:24;;;;;;;;;;;;;;;-4.66;61.15;94221.75;2055764;70;20091;-73
2023/02/08 04:05:50;;;;;;;;;;;;;;;-4.62;60.33;94228.56;2055548;69;20208;-75
2023/02/08 04:08:16;;;;;;;;;;;;;;;-4.68;60.83;94232.44;2068736;69;20077;-74
2023/02/08 04:10:41;;;;;;;;;;;;;;;-4.48;59.22;94227.03;2065536;69;20514;-74
2023/02/08 04:13:06;;;;;;;;;;;;;;;-4.57;60.51;94221.66;2055268;70;20042;-74
2023/02/08 04:15:32;;;;;;;;;;;;;;;-4.56;59.43;94223.16;2055387;70;20062;-72
2023/02/08 04:17:57;;;;;;;;;;;;;;;-4.68;60.61;94219.47;2055476;69;20490;-70
2023/02/08 04:20:23;;;;;;;;;;;;;;;-4.72;59.66;94224.41;2055244;69;20433;-71
2023/02/08 04:22:48;;;;;;;;;;;;;;;-4.69;60.41;94215.22;2055211;69;20071;-70
2023/02/08 04:25:14;;;;;;;;;;;;;;;-4.51;59.21;94211.50;2055392;69;20062;-70
2023/02/08 04:27:40;;;;;;;;;;;;;;;-4.57;59.36;94220.91;2055354;69;20061;-69
2023/02/08 04:30:06;;;;;;;;;;;;;;;-4.93;59.94;94226.31;2068435;69;20090;-71
2023/02/08 04:32:31;;;;;;;;;;;;;;;-4.64;59.40;94209.03;2055226;70;20437;-73
2023/02/08 04:34:57;;;;;;;;;;;;;;;-4.52;58.28;94209.97;2055499;69;20054;-72
2023/02/08 04:37:22;;;;;;;;;;;;;;;-4.53;58.16;94210.47;2055432;69;20050;-71
2023/02/08 04:39:48;;;;;;;;;;;;;;;-4.41;57.92;94209.38;2055388;69;20046;-74
2023/02/08 04:42:13;;;;;;;;;;;;;;;-4.41;57.11;94212.13;2055437;70;20053;-71
2023/02/08 04:44:39;;;;;;;;;;;;;;;-4.89;58.19;94215.88;2055475;70;20087;-72
2023/02/08 04:47:04;;;;;;;;;;;;;;;-4.74;59.71;94218.63;2055580;69;20403;-71
2023/02/08 04:49:30;;;;;;;;;;;;;;;-4.82;59.77;94222.22;2055219;70;20057;-70
2023/02/08 04:51:55;;;;;;;;;;;;;;;-4.84;58.74;94216.47;2055406;69;20108;-69
2023/02/08 04:54:21;;;;;;;;;;;;;;;-4.63;58.09;94218.03;2055518;70;20441;-70
2023/02/08 04:56:46;;;;;;;;;;;;;;;-4.53;58.04;94216.72;2055555;69;20082;-70
2023/02/08 04:59:12;;;;;;;;;;;;;;;-4.45;56.94;94228.06;2055493;69;20142;-70
2023/02/08 05:01:38;;;;;;;;;;;;;;;-4.51;57.13;94210.75;2068308;69;20229;-70
2023/02/08 05:04:03;;;;;;;;;;;;;;;-4.53;56.77;94211.22;2055620;70;20089;-72
2023/02/08 05:06:29;;;;;;;;;;;;;;;-4.53;56.86;94213.22;2055243;70;20151;-76
2023/02/08 05:08:54;;;;;;;;;;;;;;;-4.41;56.49;94209.38;2055317;70;20402;-75
2023/02/08 05:11:21;;;;;;;;;;;;;;;-4.63;56.10;94213.31;2055436;70;20050;-74
2023/02/08 05:13:46;;;;;;;;;;;;;;;-4.48;56.39;94218.78;2055318;70;20081;-71
2023/02/08 05:16:12;;;;;;;;;;;;;;;-4.56;57.36;94214.16;2055441;70;20441;-71
2023/02/08 05:18:37;;;;;;;;;;;;;;;-4.59;57.94;94213.13;2055383;70;20054;-72
2023/02/08 05:21:03;;;;;;;;;;;;;;;-4.56;56.77;94214.91;2055203;70;20143;-73
2023/02/08 05:23:28;;;;;;;;;;;;;;;-4.58;57.72;94214.66;2055303;69;20054;-73
2023/02/08 05:25:54;;;;;;;;;;;;;;;-4.62;57.78;94208.59;2068312;69;20389;-73
2023/02/08 05:28:20;;;;;;;;;;;;;;;-4.65;57.81;94204.03;2068179;69;20433;-72
2023/02/08 05:30:45;;;;;;;;;;;;;;;-4.60;57.29;94206.84;2068155;69;20053;-73
2023/02/08 05:33:11;;;;;;;;;;;;;;;-4.53;56.69;94213.97;2055191;70;20444;-72
2023/02/08 05:35:37;;;;;;;;;;;;;;;-4.53;56.74;94210.47;2055376;70;20069;-73
2023/02/08 05:38:02;;;;;;;;;;;;;;;-4.54;55.78;94208.94;2055434;70;20192;-76
2023/02/08 05:40:28;;;;;;;;;;;;;;;-4.53;55.93;94210.47;2068236;69;20054;-80
2023/02/08 05:42:53;;;;;;;;;;;;;;;-4.62;55.82;94212.09;2055400;69;20053;-73
2023/02/08 05:45:19;;;;;;;;;;;;;;;-4.63;56.17;94209.78;2068243;69;20127;-71
2023/02/08 05:47:46;;;;;;;;;;;;;;;-4.60;55.68;94214.34;2055337;70;20058;-70
2023/02/08 05:50:11;;;;;;;;;;;;;;;-4.55;55.54;94221.94;2055116;69;20062;-70
2023/02/08 05:52:37;;;;;;;;;;;;;;;-4.60;55.56;94219.84;2055234;69;20123;-72
2023/02/08 05:55:03;;;;;;;;;;;;;;;-4.59;55.31;94232.34;2068335;69;20137;-75
2023/02/08 05:57:28;;;;;;;;;;;;;;;-4.59;55.30;94232.34;2055123;70;20056;-72
2023/02/08 05:59:54;;;;;;;;;;;;;;;-4.54;55.13;94223.44;2055255;70;20066;-71
2023/02/08 06:02:19;;;;;;;;;;;;;;;-4.57;55.17;94232.66;2055314;70;20050;-71
2023/02/08 06:04:45;;;;;;;;;;;;;;;-4.61;55.26;94227.34;2055460;70;20051;-71
2023/02/08 06:07:10;;;;;;;;;;;;;;;-4.56;54.94;94219.66;2055543;69;20057;-72
2023/02/08 06:09:36;;;;;;;;;;;;;;;-4.51;54.59;94225.25;2055590;69;20530;-76
2023/02/08 06:12:01;;;;;;;;;;;;;;;-4.61;55.02;94232.84;2068560;69;20050;-71
2023/02/08 06:14:27;;;;;;;;;;;;;;;-4.64;54.71;94225.53;2055599;70;20058;-71
2023/02/08 06:16:52;;;;;;;;;;;;;;;-4.66;54.61;94222.50;2071523;69;20062;-72
2023/02/08 06:19:18;;;;;;;;;;;;;;;-4.66;55.66;94213.50;2055259;70;20089;-71
2023/02/08 06:21:43;;;;;;;;;;;;;;;-4.62;54.84;94220.34;2055406;70;20052;-72
2023/02/08 06:24:10;;;;;;;;;;;;;;;-4.68;55.23;94221.47;2055394;69;20118;-70
2023/02/08 06:26:36;;;;;;;;;;;;;;;-4.63;55.00;94218.81;2055534;70;20496;-75
2023/02/08 06:29:02;;;;;;;;;;;;;;;-4.63;54.65;94223.53;2068421;69;20050;-70
2023/02/08 06:31:27;;;;;;;;;;;;;;;-4.84;55.39;94219.22;2055425;69;20096;-71
2023/02/08 06:33:53;;;;;;;;;;;;;;;-4.71;54.78;94225.19;2068477;69;20050;-73
2023/02/08 06:36:18;;;;;;;;;;;;;;;-4.80;54.96;94226.03;2055569;70;20043;-71
2023/02/08 06:38:43;;;;;;;;;;;;;;;-4.81;54.87;94223.75;2055398;70;20149;-72
2023/02/08 06:41:09;;;;;;;;;;;;;;;-4.61;54.27;94223.84;2055605;70;20478;-71
2023/02/08 06:43:35;;;;;;;;;;;;;;;-4.59;53.80;94224.09;2055725;70;20050;-71
2023/02/08 06:46:03;;;;;;;;;;;;;;;-4.53;54.40;94224.22;2055478;69;20149;-71
2023/02/08 06:48:29;;;;;;;;;;;;;;;-4.55;54.37;94226.66;2055688;70;20058;-72
2023/02/08 06:50:54;;;;;;;;;;;;;;;-4.64;54.69;94225.53;2055288;70;20443;-71
2023/02/08 06:53:20;;;;;;;;;;;;;;;-4.66;54.50;94230.00;2068432;69;20050;-71
2023/02/08 06:55:49;;;;;;;;;;;;;;;-4.53;54.31;94224.97;2055410;70;20042;-77
2023/02/08 06:58:14;;;;;;;;;;;;;;;-4.49;53.80;94233.00;2055350;70;20058;-72
2023/02/08 07:00:40;;;;;;;;;;;;;;;-4.52;54.43;94231.97;2055492;70;20417;-76
2023/02/08 07:03:05;;;;;;;;;;;;;;;-4.49;53.57;94235.75;2055235;69;20046;-76
2023/02/08 07:05:33;;;;;;;;;;;;;;;-4.55;53.67;94221.94;2055067;69;20155;-77
2023/02/08 07:07:58;;;;;;;;;;;;;;;-4.66;54.21;94230.00;2055367;70;20046;-78
2023/02/08 07:10:24;;;;;;;;;;;;;;;-4.58;53.55;94227.59;2055396;70;20077;-72
2023/02/08 07:12:49;;;;;;;;;;;;;;;-4.61;53.56;94232.09;2055374;70;20042;-71
2023/02/08 07:15:15;;;;;;;;;;;;;;;-4.71;54.05;94230.69;2065790;69;20052;-72
2023/02/08 07:17:40;;;;;;;;;;;;;;;-4.90;55.42;94235.59;2055788;70;20047;-71
2023/02/08 07:20:06;;;;;;;;;;;;;;;-4.70;54.78;94232.94;2055811;70;20063;-73
2023/02/08 07:22:32;;;;;;;;;;;;;;;-4.66;54.78;94232.75;2068785;69;20097;-73
2023/02/08 07:24:57;;;;;;;;;;;;;;;-4.69;55.44;94230.94;2055804;70;20097;-72
2023/02/08 07:27:23;;;;;;;;;;;;;;;-4.66;55.20;94219.75;2068806;69;20054;-72
2023/02/08 07:29:48;;;;;;;;;;;;;;;-4.63;55.44;94218.81;2068948;69;20558;-71
2023/02/08 07:32:13;;;;;;;;;;;;;;;-4.56;54.95;94223.16;2055797;70;20050;-74
2023/02/08 07:34:39;;;;;;;;;;;;;;;-4.77;55.00;94230.56;2055695;70;20050;-78
2023/02/08 07:37:05;;;;;;;;;;;;;;;-4.96;55.73;94227.25;2055582;69;20054;-73
2023/02/08 07:39:30;;;;;;;;;;;;;;;-4.97;55.71;94228.47;2055832;70;20421;-71
2023/02/08 07:41:56;;;;;;;;;;;;;;;-4.91;54.93;94223.84;2055836;70;20054;-71
2023/02/08 07:44:22;;;;;;;;;;;;;;;-4.63;55.03;94223.53;2068772;69;20076;-71
2023/02/08 07:46:47;;;;;;;;;;;;;;;-4.57;54.48;94216.16;2055635;70;20481;-70
2023/02/08 07:49:13;;;;;;;;;;;;;;;-4.54;54.66;94206.94;2055674;69;20054;-73
2023/02/08 07:51:38;;;;;;;;;;;;;;;-4.62;55.04;94203.84;2056068;69;20473;-71
2023/02/08 07:54:04;;;;;;;;;;;;;;;-4.68;55.97;94210.47;2055801;70;20050;-71
2023/02/08 07:56:30;;;;;;;;;;;;;;;-4.73;56.41;94203.66;2055899;69;20161;-76
2023/02/08 07:58:55;;;;;;;;;;;;;;;-4.69;56.43;94208.97;2055849;70;20050;-77
2023/02/08 08:01:21;;;;;;;;;;;;;;;-4.57;55.89;94213.41;2055816;69;20087;-75
2023/02/08 08:03:46;;;;;;;;;;;;;;;-4.62;56.26;94209.34;2068747;69;20609;-79
2023/02/08 08:06:12;;;;;;;;;;;;;;;-4.82;54.16;94200.25;2055619;70;20134;-72
2023/02/08 08:08:38;;;;;;;;;;;;;;;-4.81;53.92;94210.00;2055692;69;20061;-71
2023/02/08 08:11:04;;;;;;;;;;;;;;;-4.61;53.72;94207.34;2055726;69;20046;-71
2023/02/08 08:13:29;;;;;;;;;;;;;;;-4.46;53.40;94202.56;2055682;70;20421;-70
2023/02/08 08:15:55;;;;;;;;;;;;;;;-4.49;52.67;94205.50;2056202;70;20204;-71
2023/02/08 08:18:20;;;;;;;;;;;;;;;-4.53;52.09;94202.97;2055926;70;20096;-72
2023/02/08 08:20:46;;;;;;;;;;;;;;;-4.66;52.22;94205.28;2055584;70;20062;-73
2023/02/08 08:23:11;;;;;;;;;;;;;;;-4.47;51.98;94201.06;2068710;69;20050;-71
2023/02/08 08:25:37;;;;;;;;;;;;;;;-4.47;51.71;94200.31;2055695;70;20070;-81
2023/02/08 08:28:03;;;;;;;;;;;;;;;-4.44;51.95;94197.38;2055748;70;20159;-73
2023/02/08 08:30:28;;;;;;;;;;;;;;;-4.42;51.62;94200.38;2055683;70;20053;-76
2023/02/08 08:32:54;;;;;;;;;;;;;;;-4.30;51.62;94197.81;2055596;70;20109;-78
2023/02/08 08:35:19;;;;;;;;;;;;;;;-4.24;52.30;94182.13;2055465;70;20061;-74
2023/02/08 08:37:45;;;;;;;;;;;;;;;-3.75;52.58;94189.53;2055868;69;20050;-71
2023/02/08 08:40:10;;;;;;;;;;;;;;;-3.25;53.65;94172.06;2055565;70;20073;-72
2023/02/08 08:42:38;;;;;;;;;;;;;;;-2.72;51.81;94182.56;2055623;69;20046;-73
2023/02/08 08:45:04;;;;;;;;;;;;;;;-2.35;51.07;94173.56;2055755;69;20058;-77
2023/02/08 08:47:29;;;;;;;;;;;;;;;-1.99;52.26;94177.56;2068574;69;20061;-70
2023/02/08 08:49:55;;;;;;;;;;;;;;;-1.65;51.33;94169.44;2055568;70;20553;-72
2023/02/08 08:52:20;;;;;;;;;;;;;;;-1.49;49.55;94166.00;2055538;69;20509;-71
2023/02/08 08:54:46;;;;;;;;;;;;;;;-1.69;49.10;94169.69;2055599;69;20415;-71
2023/02/08 08:57:11;;;;;;;;;;;;;;;-1.52;48.39;94163.47;2055539;69;20057;-77
2023/02/08 08:59:37;;;;;;;;;;;;;;;-0.91;48.78;94165.66;2055686;70;20069;-74
2023/02/08 09:02:02;;;;;;;;;;;;;;;-1.17;48.10;94157.53;2055758;70;20050;-82
2023/02/08 09:04:28;;;;;;;;;;;;;;;-0.70;47.57;94166.91;2055624;69;20167;-72
2023/02/08 09:06:53;;;;;;;;;;;;;;;-0.81;47.72;94164.13;2055664;69;20149;-72
2023/02/08 09:09:20;;;;;;;;;;;;;;;-0.18;46.24;94160.84;2055484;69;20414;-73
2023/02/08 09:11:45;;;;;;;;;;;;;;;-0.23;45.44;94167.13;2055533;70;20047;-74
2023/02/08 09:14:11;;;;;;;;;;;;;;;0.33;46.28;94167.03;2055510;70;20058;-72
2023/02/08 09:16:37;;;;;;;;;;;;;;;1.00;44.86;94169.47;2055455;70;20073;-73
2023/02/08 09:19:06;;;;;;;;;;;;;;;0.98;44.17;94162.94;2068757;69;20521;-72
2023/02/08 09:21:32;;;;;;;;;;;;;;;1.41;44.27;94163.16;2055455;70;20046;-72
2023/02/08 09:23:59;;;;;;;;;;;;;;;1.09;44.86;94170.44;2068520;69;20429;-72
2023/02/08 09:26:25;;;;;;;;;;;;;;;0.98;42.61;94169.25;2055499;70;20057;-74
2023/02/08 09:28:51;;;;;;;;;;;;;;;1.27;43.66;94162.25;2055691;69;20058;-79
2023/02/08 09:31:27;;;;;;;;;;;;;;;2.02;42.97;94161.16;2055372;70;20059;-81
2023/02/08 09:33:54;;;;;;;;;;;;;;;1.82;42.51;94172.69;2055438;70;20058;-78
2023/02/08 09:36:21;;;;;;;;;;;;;;;2.32;41.50;94160.34;2055440;70;20050;-74
2023/02/08 09:38:47;;;;;;;;;;;;;;;1.84;41.38;94159.06;2068322;69;20081;-76
2023/02/08 09:41:12;;;;;;;;;;;;;;;3.32;41.84;94161.09;2055401;70;20065;-79
2023/02/08 09:43:40;;;;;;;;;;;;;;;3.12;38.79;94161.66;2055706;69;20054;-73
2023/02/08 09:46:17;;;;;;;;;;;;;;;3.17;37.82;94156.00;2055636;70;20046;-75
2023/02/08 09:48:44;;;;;;;;;;;;;;;3.63;36.33;94151.25;2055657;70;20061;-72
2023/02/08 09:51:20;;;;;;;;;;;;;;;4.25;36.14;94150.94;2055479;70;20050;-75
2023/02/08 09:53:49;;;;;;;;;;;;;;;4.62;35.85;94143.66;2068527;69;20053;-75
2023/02/08 09:56:18;;;;;;;;;;;;;;;5.06;35.72;94146.84;2055824;70;20046;-73
2023/02/08 09:58:43;;;;;;;;;;;;;;;5.28;35.64;94145.59;2068535;69;20073;-73
2023/02/08 10:01:35;;;;;;;;;;;;;;;4.63;35.08;94131.25;2055669;69;20159;-75
2023/02/08 10:04:07;;;;;;;;;;;;;;;4.75;35.47;94134.53;2054847;69;20498;-74
2023/02/08 10:06:32;;;;;;;;;;;;;;;4.80;35.07;94128.84;2055440;70;20458;-74
2023/02/08 10:09:01;;;;;;;;;;;;;;;4.72;34.50;94130.03;2055753;69;20061;-73
2023/02/08 10:11:45;;;;;;;;;;;;;;;5.43;33.26;94128.25;2055539;69;20204;-73
2023/02/08 10:14:13;;;;;;;;;;;;;;;5.66;32.70;94120.09;2055565;70;20101;-73
2023/02/08 10:16:40;;;;;;;;;;;;;;;5.37;33.88;94111.63;2055653;70;20049;-72
2023/02/08 10:19:25;;;;;;;;;;;;;;;5.04;33.09;94110.31;2055669;69;20055;-78
2023/02/08 10:21:53;;;;;;;;;;;;;;;4.58;34.19;94107.75;2055570;70;20054;-73
2023/02/08 10:24:25;;;;;;;;;;;;;;;4.46;34.84;94109.25;2055492;70;20156;-76
2023/02/08 10:27:29;;;;;;;;;;;;;;;4.74;34.26;94103.09;2055457;70;20058;-80
2023/02/08 10:30:23;;;;;;;;;;;;;;;4.93;33.08;94102.22;2041498;70;20074;-73
2023/02/08 10:32:57;;;;;;;;;;;;;;;5.68;33.58;94106.31;2031264;70;20123;-74
2023/02/08 10:35:25;;;;;;;;;;;;;;;7.83;31.91;94092.88;2050049;69;20471;-74
2023/02/08 10:37:51;;;;;;;;;;;;;;;8.76;30.09;94094.28;2057485;69;20056;-75
2023/02/08 10:40:30;;;;;;;;;;;;;;;9.26;29.65;94091.66;2057541;69;20155;-74
2023/02/08 10:43:15;;;;;;;;;;;;;;;9.51;29.26;94093.78;2057482;69;20057;-73
2023/02/08 10:45:53;;;;;;;;;;;;;;;9.03;28.97;94096.63;2050540;69;20093;-74
2023/02/08 10:48:37;;;;;;;;;;;;;;;7.85;29.82;94086.69;2054634;69;20090;-74
2023/02/08 10:51:02;;;;;;;;;;;;;;;9.13;28.84;94089.84;2057760;69;20054;-74
2023/02/08 10:53:28;;;;;;;;;;;;;;;9.04;29.13;94081.28;2058006;69;20053;-73
2023/02/08 10:55:53;;;;;;;;;;;;;;;10.55;27.89;94072.38;2057984;69;20453;-74
2023/02/08 10:58:20;;;;;;;;;;;;;;;11.41;25.82;94065.94;2058014;69;20172;-74
2023/02/08 11:00:47;;;;;;;;;;;;;;;10.14;25.17;94068.22;2058000;69;20085;-74
2023/02/08 11:03:23;;;;;;;;;;;;;;;10.49;26.73;94062.66;2058019;69;20133;-74
2023/02/08 11:05:49;;;;;;;;;;;;;;;9.99;24.77;94065.50;2057870;69;20141;-75
2023/02/08 11:08:18;;;;;;;;;;;;;;;10.40;25.67;94050.75;2057750;69;20146;-74
2023/02/08 11:10:56;;;;;;;;;;;;;;;11.54;23.61;94055.59;2068896;69;20472;-76
2023/02/08 11:13:23;;;;;;;;;;;;;;;11.13;24.27;94055.94;2055871;69;20060;-77
2023/02/08 11:15:51;;;;;;;;;;;;;;;13.57;23.03;94052.44;2055875;69;20413;-75
2023/02/08 11:18:18;;;;;;;;;;;;;;;13.99;22.47;94054.69;2055888;69;20050;-75
2023/02/08 11:20:46;;;;;;;;;;;;;;;14.96;21.29;94057.00;2055692;70;20509;-77
2023/02/08 11:23:27;;;;;;;;;;;;;;;15.72;20.17;94049.19;2055810;70;20146;-74
2023/02/08 11:25:53;;;;;;;;;;;;;;;18.46;19.64;94048.69;2055851;69;20050;-75
2023/02/08 11:28:23;;;;;;;;;;;;;;;16.84;17.89;94043.91;2055897;69;20143;-76
2023/02/08 11:31:00;;;;;;;;;;;;;;;18.15;18.25;94039.88;2055894;69;20464;-75
2023/02/08 11:33:26;;;;;;;;;;;;;;;17.15;19.88;94035.06;2055746;69;20149;-75
2023/02/08 11:35:57;;;;;;;;;;;;;;;17.24;19.61;94033.41;2055733;70;20061;-77
2023/02/08 11:38:26;;;;;;;;;;;;;;;17.33;18.35;94026.09;2056066;70;20054;-76
2023/02/08 11:40:53;;;;;;;;;;;;;;;15.06;19.85;94048.41;2055854;70;20046;-75
2023/02/08 11:43:33;;;;;;;;;;;;;;;14.53;20.48;94040.00;2055636;70;20053;-74
2023/02/08 11:46:00;;;;;;;;;;;;;;;16.17;20.21;94029.25;2055707;70;20141;-75
2023/02/08 11:48:31;;;;;;;;;;;;;;;18.71;17.88;94035.72;2055831;70;20050;-74
2023/02/08 11:51:01;;;;;;;;;;;;;;;17.45;19.31;94023.91;2055677;69;20085;-76
2023/02/08 11:53:35;;;;;;;;;;;;;;;17.17;18.53;94017.34;2055716;70;20053;-75
2023/02/08 11:56:23;;;;;;;;;;;;;;;18.49;18.34;94009.59;2055824;70;20057;-75
2023/02/08 11:59:16;;;;;;;;;;;;;;;17.96;17.61;94012.50;2053882;70;20470;-74
2023/02/08 12:01:42;;;;;;;;;;;;;;;18.29;18.04;94000.75;2055733;70;20054;-74
2023/02/08 12:04:12;;;;;;;;;;;;;;;19.87;18.11;94004.34;2055709;70;20523;-78
2023/02/08 12:06:48;;;;;;;;;;;;;;;20.11;16.81;94004.00;2065915;69;20066;-75
2023/02/08 12:09:26;;;;;;;;;;;;;;;19.87;16.14;94001.47;2055858;70;20046;-76
2023/02/08 12:12:11;;;;;;;;;;;;;;;19.79;16.81;93999.00;2071514;69;20124;-77
2023/02/08 12:14:37;;;;;;;;;;;;;;;20.48;16.17;94000.69;2071535;69;20127;-76
2023/02/08 12:17:19;;;;;;;;;;;;;;;22.38;15.76;94000.63;2055643;70;20108;-75
2023/02/08 12:20:03;;;;;;;;;;;;;;;23.14;15.25;93992.63;2055441;70;20153;-77
2023/02/08 12:22:29;;;;;;;;;;;;;;;20.85;15.44;93990.84;2055574;70;20091;-76
2023/02/08 12:24:54;;;;;;;;;;;;;;;20.35;15.61;93982.25;2055557;70;20401;-77
2023/02/08 12:27:38;;;;;;;;;;;;;;;20.27;15.37;93974.03;2055538;70;20103;-75
2023/02/08 12:30:07;;;;;;;;;;;;;;;24.30;14.70;93979.09;2055639;69;20101;-76
2023/02/08 12:32:51;;;;;;;;;;;;;;;24.28;13.52;93972.53;2055445;70;20108;-77
2023/02/08 12:35:42;;;;;;;;;;;;;;;25.39;13.45;93959.06;2055596;70;20050;-78
2023/02/08 12:41:17;;;;;;;;;;;;;;;23.64;13.71;93948.97;2055564;70;20123;-75
2023/02/08 12:44:12;;;;;;;;;;;;;;;20.00;14.86;93932.06;2062936;69;20191;-75
2023/02/08 12:46:56;;;;;;;;;;;;;;;17.48;16.62;93925.88;2075352;69;20080;-75
2023/02/08 12:49:44;;;;;;;;;;;;;;;15.66;17.74;93908.94;2075144;69;20044;-79
2023/02/08 12:52:25;;;;;;;;;;;;;;;14.15;18.89;93894.38;2075364;69;20044;-81
2023/02/08 12:54:57;;;;;;;;;;;;;;;13.17;19.47;93890.53;2075291;69;20084;-81
2023/02/08 12:57:24;;;;;;;;;;;;;;;13.09;20.26;93892.06;2076053;69;20040;-78
2023/02/08 13:00:02;;;;;;;;;;;;;;;12.01;21.49;93881.47;2073436;69;20044;-78
2023/02/08 13:02:27;;;;;;;;;;;;;;;10.78;22.97;93877.75;2075650;69;20068;-80